Back to Top

Language: 

My Weather Underground Personal Weather Station Historical Data with Graphs...

Delerius Weather Station Historical Data
Daily Summary for December 12, 2017 Units:  Metric    English   Both
« Previous Day
Next Day »
Daily Weekly Monthly Yearly Custom
  High: Low: Average:
Temperature: 5 °C -4 °C 1.4 °C
Dew Point: 3.3 °C -5.1 °C -0.3 °C
Humidity: 95 % 81 % 89 %
Wind Speed: 25.7 km/h 0 km/h 8.5 km/h
Wind Gust: 48.3 km/h - -
Wind:- - WSW
Pressure: 1006.3 hPa 998.9 hPa -
Precipitation: 1.02 mm    
Historical Graphs
 
 
Tabular Data for December 12, 2017
Time Temperature Dew Point Pressure Wind Wind Speed Wind Gust Humidity Rainfall Rate (Hourly) solar Conditions
00:01 -0.5 °C -1.9 °C 999.2 hPa NW 11.3 km/h 16.1 km/h 90 % 0 mm 0 W/m2
00:06 -0.4 °C -1.8 °C 999.2 hPa NW 11.3 km/h 17.7 km/h 90 % 0 mm 0 W/m2
00:11 -0.4 °C -1.8 °C 999.2 hPa NW 11.3 km/h 16.1 km/h 90 % 0 mm 0 W/m2
00:16 -0.3 °C -1.7 °C 999.5 hPa WNW 11.3 km/h 17.7 km/h 90 % 0 mm 0 W/m2
00:21 -0.3 °C -1.7 °C 999.2 hPa NW 9.7 km/h 14.5 km/h 90 % 0 mm 0 W/m2
00:26 -0.2 °C -1.7 °C 999.2 hPa NW 9.7 km/h 14.5 km/h 90 % 0 mm 0 W/m2
00:31 -0.2 °C -1.7 °C 999.2 hPa NW 9.7 km/h 14.5 km/h 90 % 0 mm 0 W/m2
00:36 -0.2 °C -1.7 °C 999.2 hPa NW 9.7 km/h 12.9 km/h 90 % 0 mm 0 W/m2
00:41 -0.1 °C -1.6 °C 999.5 hPa NW 8 km/h 14.5 km/h 90 % 0 mm 0 W/m2
00:46 -0.1 °C -1.6 °C 999.5 hPa NW 11.3 km/h 17.7 km/h 90 % 0 mm 0 W/m2
00:51 0.1 °C -1.3 °C 999.9 hPa NW 11.3 km/h 16.1 km/h 90 % 0 mm 0 W/m2
00:56 0.1 °C -1.5 °C 999.5 hPa WNW 11.3 km/h 17.7 km/h 89 % 0 mm 0 W/m2
01:01 0.2 °C -1.4 °C 999.9 hPa NW 11.3 km/h 17.7 km/h 89 % 0 mm 0 W/m2
01:06 0.2 °C -1.4 °C 999.9 hPa NW 9.7 km/h 16.1 km/h 89 % 0 mm 0 W/m2
01:11 0.2 °C -1.4 °C 1000.2 hPa WNW 9.7 km/h 16.1 km/h 89 % 0 mm 0 W/m2
01:16 0.2 °C -1.4 °C 1000.2 hPa NW 9.7 km/h 16.1 km/h 89 % 0 mm 0 W/m2
01:21 0.2 °C -1.4 °C 1000.2 hPa NW 9.7 km/h 14.5 km/h 89 % 0 mm 0 W/m2
01:26 0.2 °C -1.6 °C 1000.6 hPa NW 11.3 km/h 17.7 km/h 88 % 0 mm 0 W/m2
01:31 0.2 °C -1.6 °C 1000.6 hPa NW 9.7 km/h 16.1 km/h 88 % 0 mm 0 W/m2
01:36 0.2 °C -1.6 °C 1000.9 hPa NW 11.3 km/h 17.7 km/h 88 % 0 mm 0 W/m2
01:41 0.1 °C -1.7 °C 1000.9 hPa WNW 9.7 km/h 14.5 km/h 88 % 0 mm 0 W/m2
01:46 0.1 °C -1.7 °C 1000.9 hPa WNW 8 km/h 16.1 km/h 88 % 0 mm 0 W/m2
01:51 0.1 °C -1.7 °C 1001.2 hPa WNW 8 km/h 14.5 km/h 88 % 0 mm 0 W/m2
01:56 0 °C -1.6 °C 1001.2 hPa WNW 8 km/h 12.9 km/h 89 % 0 mm 0 W/m2
02:01 0 °C -1.6 °C 1001.2 hPa WNW 9.7 km/h 14.5 km/h 89 % 0 mm 0 W/m2
02:06 0 °C -1.6 °C 1001.6 hPa WNW 8 km/h 11.3 km/h 89 % 0 mm 0 W/m2
02:11 0 °C -1.6 °C 1001.6 hPa WNW 9.7 km/h 14.5 km/h 89 % 0 mm 0 W/m2
02:16 -0.1 °C -1.8 °C 1001.6 hPa WNW 8 km/h 11.3 km/h 88 % 0 mm 0 W/m2
02:21 -0.2 °C -1.9 °C 1001.6 hPa WNW 6.4 km/h 14.5 km/h 88 % 0 mm 0 W/m2
02:26 -0.2 °C -1.9 °C 1001.6 hPa West 4.8 km/h 9.7 km/h 88 % 0 mm 0 W/m2
02:31 -0.3 °C -2.1 °C 1001.6 hPa West 3.2 km/h 4.8 km/h 88 % 0 mm 0 W/m2
02:36 -0.4 °C -2.2 °C 1001.9 hPa West 6.4 km/h 9.7 km/h 88 % 0 mm 0 W/m2
02:42 -0.6 °C -2.3 °C 1001.9 hPa West 6.4 km/h 9.7 km/h 88 % 0 mm 0 W/m2
02:47 -0.8 °C -2.6 °C 1002.3 hPa WNW 6.4 km/h 9.7 km/h 88 % 0 mm 0 W/m2
02:52 -0.9 °C -2.6 °C 1002.3 hPa WNW 6.4 km/h 9.7 km/h 88 % 0 mm 0 W/m2
02:57 -1.1 °C -2.7 °C 1002.3 hPa WNW 8 km/h 9.7 km/h 89 % 0 mm 0 W/m2
03:02 -1.1 °C -2.7 °C 1002.3 hPa WNW 8 km/h 9.7 km/h 89 % 0 mm 0 W/m2
03:07 -1.1 °C -2.6 °C 1002.6 hPa WNW 8 km/h 11.3 km/h 90 % 0 mm 0 W/m2
03:12 -1 °C -2.4 °C 1002.6 hPa WNW 8 km/h 12.9 km/h 90 % 0 mm 0 W/m2
03:17 -0.8 °C -2.2 °C 1002.6 hPa NW 8 km/h 16.1 km/h 90 % 0 mm 0 W/m2
03:22 -0.7 °C -2 °C 1002.6 hPa NW 9.7 km/h 14.5 km/h 91 % 0 mm 0 W/m2
03:27 -0.6 °C -2.1 °C 1002.6 hPa WNW 11.3 km/h 19.3 km/h 90 % 0 mm 0 W/m2
03:37 -0.4 °C -1.8 °C 1002.6 hPa WNW 11.3 km/h 16.1 km/h 90 % 0 mm 0 W/m2
03:42 -0.4 °C -2 °C 1002.6 hPa West 9.7 km/h 11.3 km/h 89 % 0 mm 0 W/m2
03:47 -0.5 °C -2.2 °C 1002.9 hPa West 6.4 km/h 9.7 km/h 88 % 0 mm 0 W/m2
03:52 -0.7 °C -2.4 °C 1002.9 hPa West 4.8 km/h 9.7 km/h 88 % 0 mm 0 W/m2
03:57 -0.8 °C -2.6 °C 1002.9 hPa West 3.2 km/h 6.4 km/h 88 % 0 mm 0 W/m2
04:02 -0.9 °C -2.6 °C 1002.9 hPa West 6.4 km/h 9.7 km/h 88 % 0 mm 0 W/m2
04:07 -1.1 °C -2.8 °C 1002.9 hPa WNW 8 km/h 11.3 km/h 88 % 0 mm 0 W/m2
04:12 -1.2 °C -2.8 °C 1002.9 hPa WNW 9.7 km/h 12.9 km/h 89 % 0 mm 0 W/m2
04:17 -1.2 °C -2.8 °C 1002.9 hPa WNW 6.4 km/h 9.7 km/h 89 % 0 mm 0 W/m2
04:22 -1.2 °C -2.8 °C 1002.9 hPa WNW 4.8 km/h 8 km/h 89 % 0 mm 0 W/m2
04:27 -1.2 °C -2.8 °C 1003.3 hPa NW 8 km/h 9.7 km/h 89 % 0 mm 0 W/m2
04:32 -1.2 °C -2.8 °C 1003.3 hPa WNW 4.8 km/h 8 km/h 89 % 0 mm 0 W/m2
04:37 -1.3 °C -2.9 °C 1003.3 hPa WNW 3.2 km/h 6.4 km/h 89 % 0 mm 0 W/m2
04:42 -1.4 °C -3 °C 1003.3 hPa WNW 1.6 km/h 3.2 km/h 89 % 0 mm 0 W/m2
04:47 -1.7 °C -3.3 °C 1003.3 hPa WNW 1.6 km/h 3.2 km/h 89 % 0 mm 0 W/m2
04:52 -1.8 °C -3.5 °C 1003.3 hPa Calm   1.6 km/h 88 % 0 mm 0 W/m2
04:57 -1.9 °C -3.4 °C 1003.3 hPa Calm     89 % 0 mm 0 W/m2
05:02 -2.1 °C -3.7 °C 1003.3 hPa Calm     89 % 0 mm 0 W/m2
05:07 -2.3 °C -3.9 °C 1003.6 hPa WNW 3.2 km/h 6.4 km/h 89 % 0 mm 0 W/m2
05:12 -2.5 °C -4.1 °C 1003.6 hPa West 3.2 km/h 6.4 km/h 89 % 0 mm 0 W/m2
05:17 -2.7 °C -4.3 °C 1003.3 hPa West 3.2 km/h 6.4 km/h 89 % 0 mm 0 W/m2
05:22 -2.8 °C -4.2 °C 1003.3 hPa West 3.2 km/h 4.8 km/h 90 % 0 mm 0 W/m2
05:27 -2.9 °C -4.3 °C 1003.3 hPa West 1.6 km/h 4.8 km/h 90 % 0 mm 0 W/m2
05:32 -2.9 °C -4.3 °C 1003.6 hPa Calm   3.2 km/h 90 % 0 mm 0 W/m2
05:38 -3 °C -4.4 °C 1003.6 hPa West 3.2 km/h 6.4 km/h 90 % 0 mm 0 W/m2
05:43 -3.1 °C -4.4 °C 1003.6 hPa WNW 4.8 km/h 6.4 km/h 91 % 0 mm 0 W/m2
05:48 -3 °C -4.3 °C 1003.9 hPa WNW 6.4 km/h 8 km/h 91 % 0 mm 0 W/m2
05:53 -3 °C -4.3 °C 1003.6 hPa WNW 1.6 km/h 3.2 km/h 91 % 0 mm 0 W/m2
05:58 -3 °C -4.3 °C 1003.6 hPa WNW 1.6 km/h 3.2 km/h 91 % 0 mm 0 W/m2
06:03 -3 °C -4.3 °C 1003.6 hPa WNW 3.2 km/h 4.8 km/h 91 % 0 mm 0 W/m2
06:08 -3.1 °C -4.4 °C 1003.9 hPa Calm     91 % 0 mm 0 W/m2
06:13 -3.1 °C -4.4 °C 1003.9 hPa Calm     91 % 0 mm 0 W/m2
06:18 -3.2 °C -4.4 °C 1003.9 hPa WNW 1.6 km/h 3.2 km/h 91 % 0 mm 0 W/m2
06:23 -3.3 °C -4.6 °C 1003.9 hPa WNW 3.2 km/h 3.2 km/h 91 % 0 mm 0 W/m2
06:28 -3.5 °C -4.8 °C 1003.9 hPa WNW 1.6 km/h 3.2 km/h 91 % 0 mm 0 W/m2
06:33 -3.6 °C -4.8 °C 1004.3 hPa WNW 3.2 km/h 6.4 km/h 91 % 0 mm 0 W/m2
06:38 -3.7 °C -4.9 °C 1004.3 hPa WNW 1.6 km/h 4.8 km/h 91 % 0 mm 0 W/m2
06:43 -3.7 °C -4.9 °C 1004.3 hPa WNW 4.8 km/h 8 km/h 91 % 0 mm 0 W/m2
06:48 -3.8 °C -5.1 °C 1004.6 hPa Calm   1.6 km/h 91 % 0 mm 0 W/m2
06:53 -3.8 °C -4.9 °C 1004.6 hPa WNW 1.6 km/h 4.8 km/h 92 % 0 mm 0 W/m2
06:58 -3.8 °C -4.9 °C 1004.6 hPa Calm   1.6 km/h 92 % 0 mm 0 W/m2
07:03 -3.9 °C -5 °C 1005 hPa WNW 1.6 km/h 3.2 km/h 92 % 0 mm 0 W/m2
07:08 -4 °C -5.1 °C 1005 hPa WNW 1.6 km/h 3.2 km/h 92 % 0 mm 0 W/m2
07:13 -4 °C -5.1 °C 1005 hPa WNW 1.6 km/h 3.2 km/h 92 % 0 mm 0 W/m2
07:18 -3.9 °C -5 °C 1005 hPa Calm     92 % 0 mm 0 W/m2
07:23 -3.9 °C -5 °C 1005 hPa WNW 6.4 km/h 11.3 km/h 92 % 0 mm 0 W/m2
07:28 -3.7 °C -4.7 °C 1005 hPa WNW 6.4 km/h 11.3 km/h 93 % 0 mm 0 W/m2
07:33 -3.4 °C -4.2 °C 1005.3 hPa WNW 8 km/h 9.7 km/h 94 % 0 mm 0 W/m2
07:38 -3.2 °C -4.1 °C 1005 hPa WNW 4.8 km/h 8 km/h 94 % 0 mm 0 W/m2
07:43 -3 °C -4 °C 1005 hPa WNW 1.6 km/h 3.2 km/h 93 % 0 mm 0 W/m2
07:48 -2.9 °C -3.9 °C 1005 hPa WNW 1.6 km/h 3.2 km/h 93 % 0 mm 0 W/m2
07:53 -2.9 °C -3.9 °C 1005 hPa Calm     93 % 0 mm 0 W/m2
07:58 -3 °C -4 °C 1005.3 hPa WNW 1.6 km/h 3.2 km/h 93 % 0 mm 0 W/m2
08:03 -3 °C -4 °C 1005.3 hPa WNW 3.2 km/h 6.4 km/h 93 % 0 mm 0 W/m2
08:08 -3.1 °C -4.1 °C 1005.3 hPa WNW 6.4 km/h 8 km/h 93 % 0 mm 5 W/m2
08:14 -3.1 °C -4.1 °C 1005.6 hPa WNW 8 km/h 11.3 km/h 93 % 0 mm 5 W/m2
08:19 -2.9 °C -3.9 °C 1005.6 hPa West 9.7 km/h 12.9 km/h 93 % 0 mm 7 W/m2
08:24 -2.5 °C -3.3 °C 1005.6 hPa West 11.3 km/h 16.1 km/h 94 % 0 mm 9 W/m2
08:29 -2 °C -2.7 °C 1005.6 hPa WNW 9.7 km/h 12.9 km/h 95 % 0 mm 11 W/m2
08:34 -1.7 °C -2.4 °C 1005.6 hPa WNW 6.4 km/h 11.3 km/h 95 % 0 mm 12 W/m2
08:39 -1.6 °C -2.4 °C 1005.6 hPa West 1.6 km/h 4.8 km/h 94 % 0 mm 14 W/m2
08:44 -1.6 °C -2.4 °C 1005.6 hPa West 4.8 km/h 8 km/h 94 % 0 mm 16 W/m2
08:49 -1.6 °C -2.4 °C 1005.6 hPa West 4.8 km/h 9.7 km/h 94 % 0 mm 16 W/m2
08:59 -1.2 °C -2.1 °C 1005.3 hPa West 3.2 km/h 8 km/h 94 % 0 mm 19 W/m2
09:04 -1 °C -1.8 °C 1005.3 hPa West 3.2 km/h 8 km/h 94 % 0 mm 21 W/m2
09:14 -0.7 °C -1.6 °C 1006 hPa West 4.8 km/h 8 km/h 94 % 0 mm 25 W/m2
09:19 -0.7 °C -1.7 °C 1005.6 hPa WNW 4.8 km/h 11.3 km/h 93 % 0 mm 49 W/m2
09:24 -0.4 °C -1.2 °C 1005.6 hPa WNW 9.7 km/h 12.9 km/h 94 % 0 mm 111 W/m2
09:29 -0.2 °C -1.1 °C 1006 hPa WNW 6.4 km/h 11.3 km/h 94 % 0 mm 128 W/m2
09:34 0.2 °C -0.7 °C 1005.6 hPa West 3.2 km/h 11.3 km/h 94 % 0 mm 151 W/m2
09:39 0.4 °C -0.4 °C 1006 hPa Calm   3.2 km/h 94 % 0 mm 114 W/m2
09:40 0.5 °C -0.3 °C 1006 hPa West 1.6 km/h 4.8 km/h 94 % 0 mm 151 W/m2
09:45 0.7 °C -0.2 °C 1006 hPa Calm   1.6 km/h 94 % 0 mm 176 W/m2
09:50 1.1 °C 0.2 °C 1006 hPa Calm     94 % 0 mm 206 W/m2
09:55 1.3 °C 0.3 °C 1006 hPa Calm   1.6 km/h 93 % 0 mm 207 W/m2
10:00 1.6 °C 0.6 °C 1006 hPa West 1.6 km/h 3.2 km/h 93 % 0 mm 199 W/m2
10:05 2.1 °C 1.1 °C 1006 hPa West 4.8 km/h 8 km/h 93 % 0 mm 135 W/m2
10:15 2.4 °C 0.9 °C 1006.3 hPa WNW 6.4 km/h 9.7 km/h 90 % 0 mm 169 W/m2
10:20 2.6 °C 1.1 °C 1006.3 hPa WNW 1.6 km/h 6.4 km/h 90 % 0 mm 199 W/m2
10:25 2.8 °C 1.2 °C 1006.3 hPa Calm   3.2 km/h 89 % 0 mm 174 W/m2
10:31 2.9 °C 1.1 °C 1006.3 hPa West 1.6 km/h 3.2 km/h 88 % 0 mm 171 W/m2
10:36 2.9 °C 1.1 °C 1006.3 hPa West 6.4 km/h 11.3 km/h 88 % 0 mm 167 W/m2
10:41 3 °C 1.1 °C 1006.3 hPa West 8 km/h 9.7 km/h 87 % 0 mm 179 W/m2
10:46 3.1 °C 1.2 °C 1006.3 hPa West 4.8 km/h 9.7 km/h 87 % 0 mm 141 W/m2
10:51 3.1 °C 1.2 °C 1006.3 hPa West 4.8 km/h 8 km/h 87 % 0 mm 197 W/m2
10:56 3.3 °C 1.3 °C 1006.3 hPa West 9.7 km/h 14.5 km/h 87 % 0 mm 209 W/m2
11:01 3.4 °C 1.3 °C 1006 hPa West 12.9 km/h 19.3 km/h 86 % 0 mm 153 W/m2
11:06 3.5 °C 1.4 °C 1006 hPa West 11.3 km/h 17.7 km/h 86 % 0 mm 230 W/m2
11:16 3.7 °C 1.6 °C 1006 hPa West 14.5 km/h 20.9 km/h 86 % 0 mm 149 W/m2
11:21 3.7 °C 1.4 °C 1006 hPa West 12.9 km/h 19.3 km/h 85 % 0 mm 144 W/m2
11:31 3.7 °C 1.6 °C 1006 hPa West 8 km/h 14.5 km/h 86 % 0 mm 160 W/m2
11:36 3.8 °C 1.7 °C 1006 hPa West 6.4 km/h 14.5 km/h 86 % 0 mm 186 W/m2
11:41 3.9 °C 1.8 °C 1005.6 hPa West 4.8 km/h 11.3 km/h 86 % 0 mm 167 W/m2
11:46 4 °C 1.9 °C 1005.6 hPa Calm   3.2 km/h 86 % 0 mm 165 W/m2
11:51 4.1 °C 1.8 °C 1005.6 hPa Calm   1.6 km/h 85 % 0 mm 178 W/m2
11:56 4.1 °C 1.8 °C 1005.6 hPa West 1.6 km/h 3.2 km/h 85 % 0 mm 141 W/m2
12:01 4.2 °C 1.9 °C 1005.6 hPa Calm   3.2 km/h 85 % 0 mm 211 W/m2
12:06 4.3 °C 2 °C 1005.6 hPa Calm     85 % 0 mm 127 W/m2
12:11 4.4 °C 1.9 °C 1005.6 hPa Calm     84 % 0 mm 141 W/m2
12:16 4.4 °C 1.8 °C 1005.6 hPa Calm     83 % 0 mm 123 W/m2
12:21 4.5 °C 1.9 °C 1005.6 hPa Calm   1.6 km/h 83 % 0 mm 148 W/m2
12:26 4.6 °C 1.9 °C 1005.6 hPa Calm     83 % 0 mm 213 W/m2
12:31 4.7 °C 2.1 °C 1005.6 hPa Calm     83 % 0 mm 192 W/m2
12:36 4.9 °C 2.3 °C 1005.6 hPa WSW 3.2 km/h 8 km/h 83 % 0 mm 195 W/m2
12:41 5 °C 2 °C 1005.6 hPa SW 1.6 km/h 9.7 km/h 81 % 0 mm 165 W/m2
12:46 5 °C 2 °C 1006 hPa SW 3.2 km/h 8 km/h 81 % 0 mm 120 W/m2
12:51 4.8 °C 1.8 °C 1006 hPa SW 4.8 km/h 12.9 km/h 81 % 0 mm 79 W/m2
12:56 4.6 °C 1.6 °C 1006 hPa SW 1.6 km/h 6.4 km/h 81 % 0 mm 81 W/m2
13:01 4.4 °C 1.6 °C 1006 hPa SW 4.8 km/h 9.7 km/h 82 % 0 mm 135 W/m2
13:06 4.2 °C 1.6 °C 1006 hPa SSW 9.7 km/h 16.1 km/h 83 % 0 mm 155 W/m2
13:11 4.1 °C 1.4 °C 1006 hPa SSW 8 km/h 11.3 km/h 83 % 0 mm 98 W/m2
13:16 4.1 °C 1.4 °C 1006 hPa SSW 6.4 km/h 11.3 km/h 83 % 0 mm 84 W/m2
13:21 3.9 °C 1.3 °C 1006 hPa SSW 8 km/h 11.3 km/h 83 % 0 mm 95 W/m2
13:26 3.8 °C 1.3 °C 1006.3 hPa SSW 6.4 km/h 11.3 km/h 84 % 0 mm 100 W/m2
13:31 3.7 °C 1.2 °C 1006 hPa SSW 4.8 km/h 8 km/h 84 % 0 mm 125 W/m2
13:36 3.7 °C 1.2 °C 1006 hPa SW 4.8 km/h 9.7 km/h 84 % 0 mm 125 W/m2
13:41 3.7 °C 1.2 °C 1006 hPa SW 4.8 km/h 8 km/h 84 % 0 mm 120 W/m2
13:47 3.7 °C 1.2 °C 1005.6 hPa SW 3.2 km/h 8 km/h 84 % 0 mm 90 W/m2
13:52 3.7 °C 1.2 °C 1005.6 hPa SW 4.8 km/h 8 km/h 84 % 0 mm 77 W/m2
13:57 3.7 °C 1.2 °C 1005.6 hPa SW 4.8 km/h 8 km/h 84 % 0 mm 81 W/m2
14:02 3.8 °C 1.3 °C 1005.6 hPa SSW 8 km/h 14.5 km/h 84 % 0 mm 60 W/m2
14:07 3.7 °C 1.1 °C 1005.6 hPa SSW 6.4 km/h 11.3 km/h 83 % 0 mm 62 W/m2
14:12 3.7 °C 1.1 °C 1005.6 hPa SSW 3.2 km/h 11.3 km/h 83 % 0 mm 65 W/m2
14:17 3.6 °C 1 °C 1005.6 hPa SSW 6.4 km/h 11.3 km/h 83 % 0 mm 63 W/m2
14:22 3.6 °C 1 °C 1005.3 hPa South 8 km/h 12.9 km/h 83 % 0 mm 63 W/m2
14:32 3.5 °C 0.9 °C 1005.3 hPa SSW 8 km/h 14.5 km/h 83 % 0 mm 63 W/m2
14:37 3.5 °C 0.9 °C 1005.3 hPa SSW 8 km/h 12.9 km/h 83 % 0 mm 62 W/m2
14:40 3.5 °C 0.9 °C 1005.3 hPa SSW 6.4 km/h 14.5 km/h 83 % 0 mm 60 W/m2
14:45 3.5 °C 0.9 °C 1005.3 hPa SW 6.4 km/h 11.3 km/h 83 % 0 mm 56 W/m2
14:50 3.5 °C 0.9 °C 1005.3 hPa SSW 8 km/h 12.9 km/h 83 % 0 mm 49 W/m2
14:55 3.4 °C 0.8 °C 1005.3 hPa SSW 8 km/h 11.3 km/h 83 % 0 mm 42 W/m2
15:00 3.4 °C 0.9 °C 1005.3 hPa SSW 6.4 km/h 16.1 km/h 84 % 0 mm 35 W/m2
15:05 3.3 °C 0.8 °C 1005 hPa SSW 11.3 km/h 16.1 km/h 84 % 0 mm 28 W/m2
15:10 3.2 °C 0.8 °C 1005.3 hPa SSW 11.3 km/h 20.9 km/h 84 % 0 mm 21 W/m2
15:15 3.1 °C 0.8 °C 1005.3 hPa SSW 8 km/h 12.9 km/h 85 % 0 mm 16 W/m2
15:20 3 °C 0.7 °C 1005.3 hPa SSW 8 km/h 19.3 km/h 85 % 0 mm 12 W/m2
15:25 3 °C 0.7 °C 1005.3 hPa SW 9.7 km/h 12.9 km/h 85 % 0 mm 11 W/m2
15:30 3 °C 0.9 °C 1005.3 hPa SSW 8 km/h 14.5 km/h 86 % 0 mm 9 W/m2
15:35 3 °C 0.9 °C 1005.3 hPa SSW 8 km/h 16.1 km/h 86 % 0 mm 5 W/m2
15:40 3.1 °C 1 °C 1005.3 hPa SSW 8 km/h 16.1 km/h 86 % 0 mm 5 W/m2
15:45 3 °C 0.9 °C 1005.3 hPa SSW 11.3 km/h 19.3 km/h 86 % 0 mm 0 W/m2
15:50 3.1 °C 1 °C 1005.3 hPa SSW 9.7 km/h 19.3 km/h 86 % 0 mm 0 W/m2
15:55 3 °C 0.9 °C 1005 hPa South 8 km/h 12.9 km/h 86 % 0 mm 0 W/m2
16:00 3 °C 0.9 °C 1005 hPa South 8 km/h 12.9 km/h 86 % 0 mm 0 W/m2
16:05 2.9 °C 0.8 °C 1005 hPa SSE 8 km/h 12.9 km/h 86 % 0 mm 0 W/m2
16:10 2.9 °C 0.8 °C 1005 hPa South 8 km/h 16.1 km/h 86 % 0 mm 0 W/m2
16:15 2.8 °C 0.7 °C 1005 hPa South 9.7 km/h 19.3 km/h 86 % 0 mm 0 W/m2
16:21 2.8 °C 0.7 °C 1005 hPa South 8 km/h 17.7 km/h 86 % 0 mm 0 W/m2
16:26 2.8 °C 0.7 °C 1005 hPa South 8 km/h 14.5 km/h 86 % 0 mm 0 W/m2
16:31 2.7 °C 0.8 °C 1005 hPa South 8 km/h 11.3 km/h 87 % 0 mm 0 W/m2
16:36 2.6 °C 0.7 °C 1004.6 hPa SSE 9.7 km/h 16.1 km/h 87 % 0 mm 0 W/m2
16:41 2.5 °C 0.6 °C 1004.6 hPa SSE 11.3 km/h 16.1 km/h 87 % 0 mm 0 W/m2
16:46 2.4 °C 0.4 °C 1004.6 hPa SSE 6.4 km/h 11.3 km/h 87 % 0 mm 0 W/m2
16:51 2.3 °C 0.3 °C 1004.6 hPa South 1.6 km/h 8 km/h 87 % 0 mm 0 W/m2
16:56 2.3 °C 0.5 °C 1004.6 hPa SSW 6.4 km/h 16.1 km/h 88 % 0 mm 0 W/m2
17:01 2.4 °C 0.6 °C 1004.6 hPa SSW 6.4 km/h 11.3 km/h 88 % 0 mm 0 W/m2
17:06 2.6 °C 0.8 °C 1004.3 hPa SW 6.4 km/h 16.1 km/h 88 % 0 mm 0 W/m2
17:11 2.7 °C 0.9 °C 1004.3 hPa South 9.7 km/h 19.3 km/h 88 % 0 mm 0 W/m2
17:12 2.8 °C 1 °C 1004.3 hPa South 9.7 km/h 19.3 km/h 88 % 0 mm 0 W/m2
17:17 3.1 °C 1.2 °C 1004.3 hPa SSW 17.7 km/h 29 km/h 87 % 0 mm 0 W/m2
17:22 3.3 °C 1.2 °C 1004.3 hPa SSW 16.1 km/h 22.5 km/h 86 % 0 mm 0 W/m2
17:27 3.4 °C 1.3 °C 1004.3 hPa SSW 9.7 km/h 17.7 km/h 86 % 0 mm 0 W/m2
17:32 3.4 °C 1.1 °C 1004.3 hPa SW 6.4 km/h 12.9 km/h 85 % 0 mm 0 W/m2
17:37 3.4 °C 1.3 °C 1004.3 hPa SW 11.3 km/h 22.5 km/h 86 % 0 mm 0 W/m2
17:42 3.5 °C 1.4 °C 1004.3 hPa SW 11.3 km/h 17.7 km/h 86 % 0 mm 0 W/m2
17:47 3.6 °C 1.5 °C 1004.3 hPa SW 11.3 km/h 20.9 km/h 86 % 0 mm 0 W/m2
17:52 3.6 °C 1.3 °C 1004.3 hPa SW 8 km/h 12.9 km/h 85 % 0 mm 0 W/m2
17:57 3.6 °C 1.3 °C 1004.3 hPa SW 12.9 km/h 16.1 km/h 85 % 0 mm 0 W/m2
18:02 3.6 °C 1.3 °C 1004.3 hPa SW 12.9 km/h 24.1 km/h 85 % 0 mm 0 W/m2
18:03 3.6 °C 1.3 °C 1004.3 hPa SW 14.5 km/h 24.1 km/h 85 % 0 mm 0 W/m2
18:08 3.5 °C 1.2 °C 1003.9 hPa SW 11.3 km/h 19.3 km/h 85 % 0 mm 0 W/m2
18:13 3.4 °C 1.3 °C 1003.9 hPa SW 12.9 km/h 20.9 km/h 86 % 0 mm 0 W/m2
18:18 3.4 °C 1.3 °C 1003.9 hPa SW 11.3 km/h 16.1 km/h 86 % 0 mm 0 W/m2
18:23 3.3 °C 1.2 °C 1003.9 hPa SW 6.4 km/h 12.9 km/h 86 % 0 mm 0 W/m2
18:28 3.3 °C 1.2 °C 1003.9 hPa SW 9.7 km/h 14.5 km/h 86 % 0 mm 0 W/m2
18:33 3.3 °C 1.2 °C 1003.9 hPa SSW 14.5 km/h 20.9 km/h 86 % 0 mm 0 W/m2
18:38 3.2 °C 1.1 °C 1003.9 hPa SSW 12.9 km/h 22.5 km/h 86 % 0 mm 0 W/m2
18:43 3.2 °C 1.1 °C 1003.6 hPa SW 14.5 km/h 20.9 km/h 86 % 0 mm 0 W/m2
18:48 3.2 °C 1.2 °C 1003.6 hPa SW 12.9 km/h 19.3 km/h 87 % 0 mm 0 W/m2
18:53 3.2 °C 1.2 °C 1003.6 hPa SW 14.5 km/h 22.5 km/h 87 % 0 mm 0 W/m2
18:58 3.2 °C 1.2 °C 1003.9 hPa SW 16.1 km/h 24.1 km/h 87 % 0 mm 0 W/m2
19:03 3.2 °C 1.2 °C 1003.6 hPa SW 14.5 km/h 20.9 km/h 87 % 0 mm 0 W/m2
19:08 3.2 °C 1.2 °C 1003.6 hPa SSW 16.1 km/h 29 km/h 87 % 0 mm 0 W/m2
19:13 3.2 °C 1.2 °C 1003.6 hPa SSW 17.7 km/h 24.1 km/h 87 % 0 mm 0 W/m2
19:18 3.2 °C 1.2 °C 1003.6 hPa SSW 19.3 km/h 29 km/h 87 % 0 mm 0 W/m2
19:23 3.1 °C 1.3 °C 1003.6 hPa SSW 11.3 km/h 20.9 km/h 88 % 0 mm 0 W/m2
19:29 3.1 °C 1.3 °C 1003.3 hPa SSW 9.7 km/h 14.5 km/h 88 % 0 mm 0 W/m2
19:34 3.1 °C 1.3 °C 1003.3 hPa South 8 km/h 14.5 km/h 88 % 0 mm 0 W/m2
19:39 3 °C 1.2 °C 1003.3 hPa South 9.7 km/h 20.9 km/h 88 % 0 mm 0 W/m2
19:44 3 °C 1.4 °C 1002.9 hPa SSW 9.7 km/h 16.1 km/h 89 % 0 mm 0 W/m2
19:49 3 °C 1.4 °C 1002.9 hPa South 8 km/h 11.3 km/h 89 % 0 mm 0 W/m2
19:54 3 °C 1.4 °C 1002.9 hPa SSW 11.3 km/h 24.1 km/h 89 % 0 mm 0 W/m2
19:59 3.1 °C 1.6 °C 1002.6 hPa South 14.5 km/h 29 km/h 90 % 0.25 mm 0 W/m2
20:04 3.1 °C 1.6 °C 1002.3 hPa SSW 9.7 km/h 17.7 km/h 90 % 0.25 mm 0 W/m2
20:09 3.1 °C 1.6 °C 1002.3 hPa SSW 9.7 km/h 19.3 km/h 90 % 0.25 mm 0 W/m2
20:14 3.1 °C 1.8 °C 1002.3 hPa SSW 11.3 km/h 22.5 km/h 91 % 0.25 mm 0 W/m2
20:19 3.1 °C 1.8 °C 1002.3 hPa SSW 16.1 km/h 25.7 km/h 91 % 0.25 mm 0 W/m2
20:21 3.1 °C 1.8 °C 1002.3 hPa SSW 16.1 km/h 33.8 km/h 91 % 0.25 mm 0 W/m2
20:26 3.1 °C 1.8 °C 1001.9 hPa SSW 16.1 km/h 24.1 km/h 91 % 0.51 mm 0 W/m2
20:31 3.1 °C 1.8 °C 1001.9 hPa SSW 17.7 km/h 29 km/h 91 % 0.51 mm 0 W/m2
20:36 3.1 °C 1.8 °C 1001.6 hPa SSW 14.5 km/h 22.5 km/h 91 % 0.51 mm 0 W/m2
20:41 3.1 °C 1.9 °C 1001.6 hPa SSW 16.1 km/h 22.5 km/h 92 % 0.51 mm 0 W/m2
20:46 3.1 °C 1.9 °C 1001.6 hPa SSW 17.7 km/h 25.7 km/h 92 % 0.51 mm 0 W/m2
20:51 3.1 °C 1.9 °C 1001.6 hPa SSW 17.7 km/h 30.6 km/h 92 % 0.51 mm 0 W/m2
20:56 3.2 °C 2 °C 1001.6 hPa SSW 19.3 km/h 32.2 km/h 92 % 0.51 mm 0 W/m2
21:01 3.2 °C 2 °C 1001.2 hPa SSW 19.3 km/h 33.8 km/h 92 % 0.51 mm 0 W/m2
21:06 3.1 °C 1.9 °C 1000.9 hPa SSW 22.5 km/h 40.2 km/h 92 % 0.51 mm 0 W/m2
21:11 3.1 °C 1.9 °C 1000.9 hPa SSW 19.3 km/h 29 km/h 92 % 0.51 mm 0 W/m2
21:16 3.1 °C 2.1 °C 1000.6 hPa SSW 22.5 km/h 45.1 km/h 93 % 0.51 mm 0 W/m2
21:21 3.2 °C 2.2 °C 1000.6 hPa SSW 25.7 km/h 37 km/h 93 % 0.51 mm 0 W/m2
21:26 3.2 °C 2.2 °C 1000.6 hPa SSW 24.1 km/h 38.6 km/h 93 % 0.51 mm 0 W/m2
21:32 3.2 °C 2.2 °C 1000.2 hPa SSW 22.5 km/h 40.2 km/h 93 % 0.51 mm 0 W/m2
21:37 3.2 °C 2.2 °C 999.9 hPa SW 24.1 km/h 38.6 km/h 93 % 0.51 mm 0 W/m2
21:42 3.2 °C 2.2 °C 999.9 hPa SSW 17.7 km/h 32.2 km/h 93 % 0.51 mm 0 W/m2
21:47 3.2 °C 2.2 °C 999.9 hPa SW 20.9 km/h 48.3 km/h 93 % 0.51 mm 0 W/m2
21:52 3.2 °C 2.2 °C 999.5 hPa SSW 20.9 km/h 38.6 km/h 93 % 0.51 mm 0 W/m2
21:57 3.2 °C 2.2 °C 999.5 hPa SSW 22.5 km/h 41.8 km/h 93 % 0.25 mm 0 W/m2
22:03 3.2 °C 2.2 °C 999.5 hPa SSW 20.9 km/h 37 km/h 93 % 0.25 mm 0 W/m2
22:08 3.2 °C 2.2 °C 999.5 hPa SSW 22.5 km/h 35.4 km/h 93 % 0.25 mm 0 W/m2
22:13 3.2 °C 2.2 °C 999.5 hPa SW 19.3 km/h 32.2 km/h 93 % 0.25 mm 0 W/m2
22:18 3.2 °C 2.2 °C 999.5 hPa SSW 19.3 km/h 29 km/h 93 % 0.25 mm 0 W/m2
22:23 3.3 °C 2.3 °C 999.5 hPa SSW 16.1 km/h 25.7 km/h 93 % 0 mm 0 W/m2
22:28 3.3 °C 2.3 °C 999.5 hPa SSW 16.1 km/h 30.6 km/h 93 % 0 mm 0 W/m2
22:33 3.3 °C 2.3 °C 999.5 hPa SSW 17.7 km/h 30.6 km/h 93 % 0 mm 0 W/m2
22:38 3.3 °C 2.3 °C 999.5 hPa SSW 19.3 km/h 35.4 km/h 93 % 0 mm 0 W/m2
22:43 3.4 °C 2.4 °C 999.2 hPa SSW 16.1 km/h 29 km/h 93 % 0 mm 0 W/m2
22:46 3.4 °C 2.4 °C 999.2 hPa SSW 14.5 km/h 25.7 km/h 93 % 0 mm 0 W/m2
22:51 3.4 °C 2.4 °C 999.2 hPa SSW 17.7 km/h 25.7 km/h 93 % 0 mm 0 W/m2
22:56 3.4 °C 2.4 °C 999.2 hPa SSW 17.7 km/h 29 km/h 93 % 0 mm 0 W/m2
23:01 3.5 °C 2.5 °C 999.2 hPa SW 17.7 km/h 25.7 km/h 93 % 0 mm 0 W/m2
23:06 3.6 °C 2.6 °C 999.2 hPa SW 17.7 km/h 33.8 km/h 93 % 0 mm 0 W/m2
23:11 3.6 °C 2.7 °C 999.2 hPa SW 16.1 km/h 30.6 km/h 94 % 0 mm 0 W/m2
23:21 3.7 °C 2.7 °C 999.2 hPa SSW 16.1 km/h 24.1 km/h 93 % 0 mm 0 W/m2
23:31 3.8 °C 2.8 °C 998.9 hPa SW 11.3 km/h 17.7 km/h 93 % 0 mm 0 W/m2
23:32 3.8 °C 2.8 °C 999.2 hPa SW 11.3 km/h 17.7 km/h 93 % 0 mm 0 W/m2
23:37 3.9 °C 3 °C 998.9 hPa SW 12.9 km/h 19.3 km/h 94 % 0 mm 0 W/m2
23:42 3.9 °C 3 °C 998.9 hPa SW 14.5 km/h 20.9 km/h 94 % 0 mm 0 W/m2
23:47 4.1 °C 3.2 °C 998.9 hPa SW 14.5 km/h 20.9 km/h 94 % 0 mm 0 W/m2
23:52 4.2 °C 3.3 °C 998.9 hPa SW 12.9 km/h 17.7 km/h 94 % 0 mm 0 W/m2
23:57 4.2 °C 3.3 °C 998.9 hPa SW 14.5 km/h 22.5 km/h 94 % 0 mm 0 W/m2
Delerius-Weather
Compliments of Weather Underground - 2.25 mb

Data updates at regular intervals.